Blackpool, United Kingdom
Current Conditions -  °F | °C
As of 5:20 AM on Monday 20 Oct 2014 (Local Time) from EGGP Reporting Station
Few Clouds Few Clouds  
Wind Chill: 54°   Ceiling: Unl
Heat Index: 54°   Visibility: 6mi
Dew Point: 50°   Wind: 13mph
Humidity: 88%   Direction: 240°WSW
Pressure: 29.88"   Gusts: NA
Location:  53.81°N, 3.05°W
Report Text: EGGP 200420Z 24011KT 9999 FEW048 12/10 Q1012
Loading
Personal Weather Stations






























Interactive Weather Map
Tropical Storm Tracking
New forecast layout! Learn more

10-Day Weather Forecast

Advertisements
Track Severe Weather on mobile